Time;durP1;ratioP1;P1;durP2;ratioP2;P2;SDS_P1;SDS_P2;PMS_P1;PMS_P2;Temp;Humidity;BMP_temperature;BMP_pressure;BME280_temperature;BME280_humidity;BME280_pressure;Samples;Min_cycle;Max_cycle;Signal;HPM_P1;HPM_P2
2023/08/02 00:03:21;;;;;;;12.40;2.30;;;15.60;99.90;;;;;;7343379;32;20201;-57
2023/08/02 00:07:23;;;;;;;8.23;1.77;;;15.60;99.90;;;;;;7340864;32;20463;-56
2023/08/02 00:11:25;;;;;;;6.07;2.00;;;15.40;99.90;;;;;;7342670;32;20161;-56
2023/08/02 00:15:27;;;;;;;8.25;1.87;;;15.40;99.90;;;;;;7343172;32;20317;-56
2023/08/02 00:19:29;;;;;;;5.45;1.65;;;15.30;99.90;;;;;;7344692;32;20250;-56
2023/08/02 00:23:31;;;;;;;7.00;1.90;;;15.20;99.90;;;;;;7340739;32;20237;-57
2023/08/02 00:27:33;;;;;;;7.10;2.30;;;15.10;99.90;;;;;;7344834;32;20932;-56
2023/08/02 00:31:34;;;;;;;5.32;2.10;;;15.10;99.90;;;;;;7335073;32;20198;-57
2023/08/02 00:35:45;;;;;;;6.93;1.83;;;15.00;99.90;;;;;;7339132;32;20095;-58
2023/08/02 00:39:50;;;;;;;6.10;2.10;;;14.90;99.90;;;;;;7341848;32;20249;-57
2023/08/02 00:43:52;;;;;;;5.28;2.35;;;14.80;99.90;;;;;;7340211;32;20355;-57
2023/08/02 00:47:54;;;;;;;6.25;1.62;;;14.70;99.90;;;;;;7338707;32;20259;-56
2023/08/02 00:51:56;;;;;;;5.20;1.70;;;14.70;99.90;;;;;;7350521;32;20326;-56
2023/08/02 00:55:58;;;;;;;5.40;2.10;;;14.80;99.90;;;;;;7350290;32;20205;-56
2023/08/02 01:00:00;;;;;;;7.57;2.00;;;14.60;99.90;;;;;;7351324;32;20272;-57
2023/08/02 01:04:02;;;;;;;7.60;2.17;;;14.60;99.90;;;;;;7349310;32;20224;-56
2023/08/02 01:08:11;;;;;;;6.20;1.60;;;14.50;99.90;;;;;;7350795;32;20269;-56
2023/08/02 01:12:15;;;;;;;7.85;2.10;;;14.40;99.90;;;;;;7351200;32;20268;-56
2023/08/02 01:16:19;;;;;;;5.40;1.85;;;14.40;99.90;;;;;;7348535;32;20244;-56
2023/08/02 01:20:21;;;;;;;7.18;1.98;;;14.40;99.90;;;;;;7350954;32;20694;-55
2023/08/02 01:24:31;;;;;;;3.87;1.75;;;14.30;99.90;;;;;;7353011;32;20216;-56
2023/08/02 01:28:38;;;;;;;4.87;1.60;;;14.30;99.90;;;;;;7348430;32;20232;-56
2023/08/02 01:32:40;;;;;;;8.00;1.58;;;14.20;99.90;;;;;;7350472;32;20095;-56
2023/08/02 01:36:42;;;;;;;8.85;2.53;;;14.20;99.90;;;;;;7352639;32;20173;-57
2023/08/02 01:40:45;;;;;;;4.80;1.77;;;14.30;99.90;;;;;;7354080;32;20235;-56
2023/08/02 01:44:47;;;;;;;4.50;1.60;;;14.30;99.90;;;;;;7355547;32;20119;-55
2023/08/02 01:48:48;;;;;;;9.85;2.08;;;14.40;99.90;;;;;;7354658;32;20276;-55
2023/08/02 01:52:50;;;;;;;6.93;2.03;;;14.50;99.90;;;;;;7355922;32;20208;-55
2023/08/02 01:56:52;;;;;;;7.20;1.87;;;14.60;99.90;;;;;;7353699;32;20628;-56
2023/08/02 02:00:54;;;;;;;4.95;1.45;;;14.70;99.90;;;;;;7355466;32;20321;-56
2023/08/02 02:04:56;;;;;;;6.25;1.83;;;14.70;99.90;;;;;;7345835;32;20121;-55
2023/08/02 02:08:57;;;;;;;5.25;1.92;;;14.70;99.90;;;;;;7353569;32;20254;-55
2023/08/02 02:12:59;;;;;;;7.82;1.90;;;14.80;99.90;;;;;;7353385;32;20254;-55
2023/08/02 02:17:01;;;;;;;9.68;2.10;;;14.80;99.90;;;;;;7353445;32;20179;-56
2023/08/02 02:21:03;;;;;;;3.85;1.90;;;14.80;99.90;;;;;;7341685;32;20286;-56
2023/08/02 02:25:05;;;;;;;5.00;1.55;;;14.90;99.90;;;;;;7344090;32;20202;-56
2023/08/02 02:29:07;;;;;;;10.20;2.42;;;15.00;99.90;;;;;;7347095;32;20665;-56
2023/08/02 02:33:08;;;;;;;6.12;1.90;;;15.00;99.90;;;;;;7344063;32;20224;-55
2023/08/02 02:37:10;;;;;;;5.93;2.22;;;15.00;99.90;;;;;;7342057;32;20264;-56
2023/08/02 02:41:12;;;;;;;4.85;1.80;;;15.10;99.90;;;;;;7344073;32;20414;-56
2023/08/02 02:45:14;;;;;;;12.00;2.22;;;15.00;99.90;;;;;;7343943;32;20514;-56
2023/08/02 02:49:15;;;;;;;6.05;2.10;;;15.00;99.90;;;;;;7344759;32;20625;-56
2023/08/02 02:53:20;;;;;;;4.15;1.85;;;15.10;99.90;;;;;;7344451;32;20312;-56
2023/08/02 02:57:22;;;;;;;6.75;1.70;;;15.10;99.90;;;;;;7342737;32;20107;-59
2023/08/02 03:01:23;;;;;;;4.62;1.90;;;15.10;99.90;;;;;;7342792;32;20616;-56
2023/08/02 03:05:25;;;;;;;6.15;1.77;;;15.10;99.90;;;;;;7341827;32;20379;-55
2023/08/02 03:09:27;;;;;;;4.15;1.55;;;15.20;99.90;;;;;;7343464;32;20309;-56
2023/08/02 03:13:29;;;;;;;5.65;1.73;;;15.20;99.90;;;;;;7345030;32;20728;-56
2023/08/02 03:17:31;;;;;;;6.10;2.20;;;15.30;99.90;;;;;;7342280;32;20243;-56
2023/08/02 03:21:32;;;;;;;5.57;2.00;;;15.30;99.90;;;;;;7343333;32;20793;-56
2023/08/02 03:25:35;;;;;;;6.50;2.12;;;15.30;99.90;;;;;;7343209;32;20220;-57
2023/08/02 03:29:37;;;;;;;6.10;1.90;;;15.30;99.90;;;;;;7342416;32;20310;-56
2023/08/02 03:33:39;;;;;;;4.72;2.12;;;15.30;99.90;;;;;;7341803;32;20313;-58
2023/08/02 03:37:41;;;;;;;3.92;2.03;;;15.30;99.90;;;;;;7341571;32;20303;-56
2023/08/02 03:41:42;;;;;;;7.22;2.03;;;15.40;99.90;;;;;;7354618;32;20205;-56
2023/08/02 03:45:44;;;;;;;5.18;1.90;;;15.40;99.90;;;;;;7342921;32;20257;-56
2023/08/02 03:49:46;;;;;;;3.50;1.85;;;15.40;99.90;;;;;;7341167;32;20536;-56
2023/08/02 03:53:48;;;;;;;7.40;2.25;;;15.50;99.90;;;;;;7342749;32;20636;-56
2023/08/02 03:57:49;;;;;;;9.48;1.85;;;15.50;99.90;;;;;;7338847;32;20309;-56
2023/08/02 04:01:51;;;;;;;6.03;2.28;;;15.50;99.90;;;;;;7341145;32;20488;-56
2023/08/02 04:05:53;;;;;;;6.18;1.83;;;15.40;99.90;;;;;;7345710;32;20133;-56
2023/08/02 04:09:55;;;;;;;6.20;2.37;;;15.50;99.90;;;;;;7341294;32;20269;-57
2023/08/02 04:13:56;;;;;;;6.28;1.90;;;15.60;99.90;;;;;;7338675;32;20221;-56
2023/08/02 04:17:58;;;;;;;5.60;1.80;;;15.60;99.90;;;;;;7338082;32;20207;-56
2023/08/02 04:22:00;;;;;;;4.85;1.90;;;15.60;99.90;;;;;;7338930;32;20900;-55
2023/08/02 04:26:09;;;;;;;6.65;1.52;;;15.70;99.90;;;;;;7340707;32;21445;-56
2023/08/02 04:30:11;;;;;;;9.25;1.87;;;15.70;99.90;;;;;;7341567;32;20256;-56
2023/08/02 04:34:13;;;;;;;5.72;2.20;;;15.70;99.90;;;;;;7341601;32;20764;-56
2023/08/02 04:38:15;;;;;;;6.60;2.08;;;15.60;99.90;;;;;;7339337;32;20152;-56
2023/08/02 04:42:17;;;;;;;3.22;1.77;;;15.70;99.90;;;;;;7340096;32;20314;-56
2023/08/02 04:46:18;;;;;;;4.22;1.95;;;15.70;99.90;;;;;;7341718;32;20315;-56
2023/08/02 04:50:20;;;;;;;3.15;1.45;;;15.70;99.90;;;;;;7339164;32;20295;-57
2023/08/02 04:54:22;;;;;;;6.70;1.87;;;15.70;99.90;;;;;;7340569;32;20222;-56
2023/08/02 04:58:23;;;;;;;5.20;1.48;;;15.70;99.90;;;;;;7339552;32;20796;-57
2023/08/02 05:02:29;;;;;;;4.32;1.58;;;15.80;99.90;;;;;;7341225;32;20505;-57
2023/08/02 05:06:30;;;;;;;3.25;1.77;;;15.80;99.90;;;;;;7321346;32;20221;-59
2023/08/02 05:10:32;;;;;;;3.28;1.77;;;15.80;99.90;;;;;;7331144;32;20770;-58
2023/08/02 05:14:34;;;;;;;4.28;1.70;;;15.80;99.90;;;;;;7335957;32;20248;-58
2023/08/02 05:18:36;;;;;;;5.40;1.90;;;15.80;99.90;;;;;;7333553;32;20214;-58
2023/08/02 05:22:37;;;;;;;3.17;1.80;;;15.90;99.90;;;;;;7330974;32;20253;-58
2023/08/02 05:26:39;;;;;;;3.15;1.70;;;16.00;99.90;;;;;;7340953;32;20242;-56
2023/08/02 05:30:41;;;;;;;6.85;2.45;;;15.90;99.90;;;;;;7336457;32;20151;-55
2023/08/02 05:34:43;;;;;;;5.40;2.00;;;15.90;99.90;;;;;;7339326;32;20222;-56
2023/08/02 05:38:44;;;;;;;4.90;2.22;;;16.00;99.90;;;;;;7341441;32;20214;-58
2023/08/02 05:42:48;;;;;;;4.47;2.20;;;16.00;99.90;;;;;;7339445;32;20178;-55
2023/08/02 05:46:49;;;;;;;5.25;2.33;;;16.00;99.90;;;;;;7338958;32;20198;-57
2023/08/02 05:50:52;;;;;;;4.75;2.12;;;16.10;99.90;;;;;;7337783;32;20217;-58
2023/08/02 05:54:53;;;;;;;6.53;3.30;;;16.00;99.90;;;;;;7333556;32;20374;-57
2023/08/02 05:58:55;;;;;;;6.37;3.95;;;16.10;99.90;;;;;;7340665;32;20226;-57
2023/08/02 06:02:57;;;;;;;5.22;2.58;;;16.10;99.90;;;;;;7335901;32;20270;-56
2023/08/02 06:06:58;;;;;;;4.90;2.70;;;16.10;99.90;;;;;;7337430;32;20214;-56
2023/08/02 06:11:03;;;;;;;6.85;2.97;;;16.10;99.90;;;;;;7340921;32;20103;-56
2023/08/02 06:15:05;;;;;;;5.95;2.83;;;16.10;99.90;;;;;;7333717;32;20334;-57
2023/08/02 06:19:07;;;;;;;5.45;2.80;;;16.10;99.90;;;;;;7338736;32;20213;-56
2023/08/02 06:23:09;;;;;;;4.85;2.75;;;16.10;99.90;;;;;;7342294;32;20201;-56
2023/08/02 06:27:10;;;;;;;5.28;3.03;;;16.10;99.90;;;;;;7340446;32;20293;-56
2023/08/02 06:31:12;;;;;;;7.85;3.22;;;16.10;99.90;;;;;;7345487;32;20186;-56
2023/08/02 06:35:14;;;;;;;5.37;3.83;;;16.10;99.90;;;;;;7338536;32;20774;-57
2023/08/02 06:39:16;;;;;;;10.52;4.03;;;16.10;99.90;;;;;;7340885;32;22270;-56
2023/08/02 06:43:18;;;;;;;5.97;3.37;;;16.20;99.90;;;;;;7341926;32;20182;-56
2023/08/02 06:47:20;;;;;;;5.95;3.42;;;16.10;99.90;;;;;;7335777;32;20222;-57
2023/08/02 06:51:22;;;;;;;6.25;3.40;;;16.10;99.90;;;;;;7343368;32;20131;-57
2023/08/02 06:55:25;;;;;;;4.75;3.28;;;16.20;99.90;;;;;;7339478;32;20213;-57
2023/08/02 06:59:27;;;;;;;5.40;3.30;;;16.10;99.90;;;;;;7334517;32;20265;-57
2023/08/02 07:03:29;;;;;;;4.40;3.12;;;16.20;99.90;;;;;;7357516;32;20123;-56
2023/08/02 07:07:30;;;;;;;5.28;3.30;;;16.20;99.90;;;;;;7366953;32;20152;-56
2023/08/02 07:11:32;;;;;;;6.97;2.85;;;16.30;99.90;;;;;;7366786;32;20190;-56
2023/08/02 07:15:38;;;;;;;4.90;2.50;;;16.20;99.90;;;;;;7366074;32;20183;-56
2023/08/02 07:19:40;;;;;;;5.00;2.47;;;16.10;99.90;;;;;;7364446;32;20517;-57
2023/08/02 07:23:41;;;;;;;5.10;2.75;;;16.10;99.90;;;;;;7368549;32;20350;-57
2023/08/02 07:27:43;;;;;;;4.30;2.30;;;16.20;99.90;;;;;;7369746;32;20613;-57
2023/08/02 07:31:45;;;;;;;3.37;2.30;;;16.30;99.90;;;;;;7364976;32;20217;-57
2023/08/02 07:35:47;;;;;;;3.58;2.42;;;16.40;99.90;;;;;;7373482;32;20992;-56
2023/08/02 07:39:49;;;;;;;4.40;2.15;;;16.40;99.90;;;;;;7370171;32;20129;-57
2023/08/02 07:43:50;;;;;;;2.40;2.00;;;16.50;99.90;;;;;;7368140;32;20127;-56
2023/08/02 07:47:52;;;;;;;3.78;1.95;;;16.70;99.90;;;;;;7370170;32;20235;-57
2023/08/02 07:51:55;;;;;;;2.25;1.90;;;16.80;99.90;;;;;;7367691;32;20183;-57
2023/08/02 07:56:01;;;;;;;2.87;1.80;;;17.10;99.90;;;;;;7366587;32;20560;-57
2023/08/02 08:00:03;;;;;;;5.70;2.00;;;17.20;99.90;;;;;;7374877;32;20190;-56
2023/08/02 08:04:05;;;;;;;2.55;2.00;;;17.20;99.90;;;;;;7364956;32;20239;-57
2023/08/02 08:08:06;;;;;;;2.40;1.52;;;17.40;99.90;;;;;;7368764;32;20568;-56
2023/08/02 08:12:09;;;;;;;2.70;2.08;;;17.30;99.90;;;;;;7370461;32;20218;-57
2023/08/02 08:16:11;;;;;;;2.83;1.77;;;17.40;99.90;;;;;;7365364;32;20115;-57
2023/08/02 08:20:13;;;;;;;4.43;2.28;;;17.40;99.90;;;;;;7366369;32;20099;-57
2023/08/02 08:24:14;;;;;;;3.05;2.25;;;17.40;99.90;;;;;;7375047;32;20258;-57
2023/08/02 08:28:16;;;;;;;3.17;2.20;;;17.40;99.90;;;;;;7369157;32;20559;-57
2023/08/02 08:32:18;;;;;;;5.80;2.70;;;17.40;99.90;;;;;;7366400;32;20106;-56
2023/08/02 08:36:21;;;;;;;4.43;2.53;;;17.30;99.90;;;;;;7368365;32;20171;-56
2023/08/02 08:40:22;;;;;;;3.22;2.80;;;17.30;99.90;;;;;;7371649;32;20782;-57
2023/08/02 08:44:24;;;;;;;3.50;2.80;;;17.20;99.90;;;;;;7365886;32;20698;-58
2023/08/02 08:48:27;;;;;;;3.03;2.72;;;17.10;99.90;;;;;;7360509;32;20114;-57
2023/08/02 08:52:33;;;;;;;4.18;2.70;;;17.20;99.90;;;;;;7363782;32;20115;-56
2023/08/02 08:56:41;;;;;;;5.55;2.80;;;17.30;99.90;;;;;;7365815;32;20143;-57
2023/08/02 09:00:44;;;;;;;3.55;2.80;;;17.50;99.90;;;;;;7371956;32;20638;-57
2023/08/02 09:04:46;;;;;;;5.30;2.70;;;17.70;99.90;;;;;;7363019;32;20161;-57
2023/08/02 09:08:48;;;;;;;4.78;2.50;;;18.00;99.90;;;;;;7363351;32;20194;-56
2023/08/02 09:12:49;;;;;;;2.40;2.20;;;18.50;99.90;;;;;;7370942;32;20671;-57
2023/08/02 09:16:58;;;;;;;3.55;2.40;;;18.70;99.90;;;;;;7366893;32;20702;-56
2023/08/02 09:21:00;;;;;;;3.35;2.00;;;19.10;99.90;;;;;;7367834;32;20107;-57
2023/08/02 09:25:07;;;;;;;4.05;1.73;;;19.00;99.90;;;;;;7360094;32;20439;-57
2023/08/02 09:29:09;;;;;;;2.53;1.80;;;18.80;99.90;;;;;;7358603;32;20103;-56
2023/08/02 09:33:11;;;;;;;3.08;1.70;;;18.70;99.90;;;;;;7363354;32;20729;-57
2023/08/02 09:37:15;;;;;;;4.05;2.03;;;18.70;99.90;;;;;;7360741;32;20111;-57
2023/08/02 09:41:23;;;;;;;2.45;1.40;;;18.80;99.90;;;;;;7362381;32;20196;-57
2023/08/02 09:45:45;;;;;;;2.47;1.37;;;18.80;99.90;;;;;;7362043;32;20161;-57
2023/08/02 09:50:11;;;;;;;3.28;1.25;;;18.80;99.90;;;;;;7362980;32;20111;-56
2023/08/02 09:54:14;;;;;;;1.65;1.20;;;18.60;99.90;;;;;;7355670;32;20224;-57
2023/08/02 09:58:20;;;;;;;1.08;0.90;;;18.60;99.90;;;;;;7359599;32;20200;-57
2023/08/02 10:02:26;;;;;;;1.60;0.93;;;18.60;99.90;;;;;;7371658;32;20611;-56
2023/08/02 10:06:47;;;;;;;0.87;0.87;;;18.60;99.90;;;;;;7363486;32;20129;-56
2023/08/02 10:10:49;;;;;;;2.97;1.30;;;18.70;99.90;;;;;;7372483;32;20166;-56
2023/08/02 10:14:52;;;;;;;1.80;1.15;;;18.70;99.90;;;;;;7365550;32;20150;-58
2023/08/02 10:18:54;;;;;;;1.10;0.80;;;18.70;99.90;;;;;;7367185;32;20133;-56
2023/08/02 10:22:58;;;;;;;3.50;1.00;;;18.80;99.90;;;;;;7366069;32;20179;-56
2023/08/02 10:27:05;;;;;;;1.70;0.85;;;18.60;99.90;;;;;;7365414;32;20116;-56
2023/08/02 10:31:09;;;;;;;1.15;0.90;;;18.50;99.90;;;;;;7362896;32;20129;-56
2023/08/02 10:35:11;;;;;;;2.97;1.00;;;18.50;99.90;;;;;;7359256;32;20222;-56
2023/08/02 10:39:12;;;;;;;2.37;0.90;;;18.60;99.90;;;;;;7368093;32;20271;-57
2023/08/02 10:43:14;;;;;;;1.08;0.77;;;18.80;99.90;;;;;;7370086;32;20107;-57
2023/08/02 10:47:25;;;;;;;1.58;0.73;;;18.80;99.90;;;;;;7361097;32;20125;-56
2023/08/02 10:51:26;;;;;;;1.25;0.70;;;19.00;99.90;;;;;;7373077;32;20107;-57
2023/08/02 10:55:28;;;;;;;1.77;0.60;;;19.10;99.90;;;;;;7363887;32;20578;-56
2023/08/02 10:59:30;;;;;;;3.12;0.80;;;19.20;99.90;;;;;;7364462;32;20103;-58
2023/08/02 11:03:32;;;;;;;1.23;0.90;;;19.50;99.90;;;;;;7363157;32;20171;-58
2023/08/02 11:07:35;;;;;;;2.25;0.30;;;20.40;99.90;;;;;;7362027;32;20111;-57
2023/08/02 11:11:38;;;;;;;0.98;0.50;;;21.00;99.90;;;;;;7365858;32;20286;-57
2023/08/02 11:15:40;;;;;;;0.93;0.45;;;21.30;99.90;;;;;;7364330;32;20126;-57
2023/08/02 11:19:50;;;;;;;1.35;0.32;;;21.30;99.90;;;;;;7356694;32;20166;-58
2023/08/02 11:23:59;;;;;;;1.05;0.30;;;21.20;99.90;;;;;;7362046;32;20138;-57
2023/08/02 11:28:03;;;;;;;2.08;0.47;;;21.60;99.90;;;;;;7363754;32;20139;-57
2023/08/02 11:32:05;;;;;;;0.77;0.40;;;21.40;99.90;;;;;;7364438;32;20138;-57
2023/08/02 11:36:08;;;;;;;0.98;0.45;;;21.50;99.90;;;;;;7364522;32;20145;-57
2023/08/02 11:40:11;;;;;;;1.15;0.32;;;21.40;99.90;;;;;;7363010;32;20202;-57
2023/08/02 11:44:27;;;;;;;2.70;0.40;;;21.10;99.90;;;;;;7361862;32;20103;-57
2023/08/02 11:48:30;;;;;;;2.60;0.45;;;21.10;99.90;;;;;;7361236;32;20126;-57
2023/08/02 11:52:33;;;;;;;1.83;0.60;;;20.80;99.90;;;;;;7363895;32;20851;-58
2023/08/02 11:56:36;;;;;;;1.12;0.40;;;20.90;99.90;;;;;;7363072;32;20110;-57
2023/08/02 12:00:38;;;;;;;2.83;0.43;;;21.30;99.90;;;;;;7364420;32;20164;-57
2023/08/02 12:04:40;;;;;;;1.50;0.30;;;21.50;99.90;;;;;;7362589;32;20585;-57
2023/08/02 12:08:59;;;;;;;2.58;0.32;;;21.60;99.90;;;;;;7366084;32;20163;-58
2023/08/02 12:13:15;;;;;;;1.10;0.40;;;21.90;99.90;;;;;;7362312;32;20155;-58
2023/08/02 12:17:21;;;;;;;0.70;0.30;;;21.90;99.90;;;;;;7362016;32;20256;-57
2023/08/02 12:21:24;;;;;;;0.30;0.20;;;21.60;99.90;;;;;;7367168;32;20135;-57
2023/08/02 12:25:26;;;;;;;0.73;0.40;;;21.30;99.90;;;;;;7363127;32;20119;-57
2023/08/02 12:29:30;;;;;;;0.50;0.20;;;21.10;99.90;;;;;;7367154;32;20178;-57
2023/08/02 12:33:32;;;;;;;1.30;0.30;;;21.00;99.90;;;;;;7362588;32;20194;-54
2023/08/02 12:37:35;;;;;;;0.32;0.20;;;20.90;99.90;;;;;;7369212;32;20146;-55
2023/08/02 12:41:36;;;;;;;1.50;0.43;;;21.20;99.90;;;;;;7368027;32;20178;-53
2023/08/02 12:45:38;;;;;;;1.58;0.40;;;21.10;99.90;;;;;;7366156;32;20272;-54
2023/08/02 12:49:40;;;;;;;2.00;0.40;;;20.90;99.90;;;;;;7366347;32;20115;-55
2023/08/02 12:53:42;;;;;;;1.08;0.43;;;20.50;99.90;;;;;;7358611;32;20160;-54
2023/08/02 12:57:43;;;;;;;3.05;0.50;;;20.20;99.90;;;;;;7368743;32;20320;-54
2023/08/02 13:01:45;;;;;;;1.12;0.40;;;20.20;99.90;;;;;;7360436;32;20133;-55
2023/08/02 13:05:47;;;;;;;0.80;0.70;;;20.10;99.90;;;;;;7365091;32;20214;-53
2023/08/02 13:09:50;;;;;;;3.45;1.08;;;20.20;99.90;;;;;;7358161;32;20133;-53
2023/08/02 13:13:52;;;;;;;1.90;0.90;;;20.40;99.90;;;;;;7367359;32;20119;-54
2023/08/02 13:17:54;;;;;;;1.33;0.70;;;20.70;99.90;;;;;;7363463;32;20186;-53
2023/08/02 13:21:56;;;;;;;1.87;0.90;;;20.90;99.90;;;;;;7357783;32;20218;-53
2023/08/02 13:25:57;;;;;;;1.37;0.70;;;21.10;99.90;;;;;;7356378;32;20219;-57
2023/08/02 13:30:00;;;;;;;3.70;1.10;;;21.10;99.90;;;;;;7362842;32;20131;-56
2023/08/02 13:34:02;;;;;;;3.62;0.90;;;21.20;99.90;;;;;;7367244;32;20206;-56
2023/08/02 13:38:03;;;;;;;3.70;0.93;;;21.00;99.90;;;;;;7360462;32;20230;-56
2023/08/02 13:42:05;;;;;;;3.25;1.00;;;20.90;99.90;;;;;;7366357;32;20523;-56
2023/08/02 13:46:07;;;;;;;2.62;1.00;;;20.80;99.90;;;;;;7364367;32;20137;-57
2023/08/02 13:50:09;;;;;;;2.37;0.90;;;20.60;99.90;;;;;;7367262;32;20501;-56
2023/08/02 13:54:11;;;;;;;3.00;0.95;;;20.70;99.90;;;;;;7360501;32;20139;-55
2023/08/02 13:58:13;;;;;;;2.75;1.20;;;21.00;99.90;;;;;;7357964;32;20179;-57
2023/08/02 14:02:14;;;;;;;4.10;1.17;;;21.50;99.90;;;;;;7363966;32;20134;-56
2023/08/02 14:06:16;;;;;;;5.87;1.20;;;21.70;99.90;;;;;;7359009;32;20108;-57
2023/08/02 14:10:18;;;;;;;2.87;1.10;;;22.10;99.90;;;;;;7365418;32;20229;-56
2023/08/02 14:14:20;;;;;;;6.45;1.20;;;22.60;99.90;;;;;;7367406;32;20589;-57
2023/08/02 14:18:22;;;;;;;2.70;0.90;;;23.10;99.90;;;;;;7362899;32;20115;-57
2023/08/02 14:22:23;;;;;;;2.85;1.20;;;23.30;99.90;;;;;;7367126;32;20206;-57
2023/08/02 14:26:25;;;;;;;3.80;1.00;;;23.10;99.90;;;;;;7370335;32;20557;-56
2023/08/02 14:30:27;;;;;;;7.43;1.10;;;22.50;99.90;;;;;;7370670;32;20102;-55
2023/08/02 14:34:29;;;;;;;3.55;1.10;;;21.80;99.90;;;;;;7371047;32;20274;-57
2023/08/02 14:38:32;;;;;;;6.57;1.60;;;21.30;99.90;;;;;;7369278;32;20249;-57
2023/08/02 14:42:34;;;;;;;5.53;1.20;;;21.40;99.90;;;;;;7366725;32;20115;-57
2023/08/02 14:46:37;;;;;;;5.37;1.55;;;22.00;99.90;;;;;;7371247;32;20148;-57
2023/08/02 14:50:39;;;;;;;3.83;0.88;;;22.70;99.90;;;;;;7364704;32;21406;-56
2023/08/02 14:54:40;;;;;;;3.62;1.00;;;22.90;99.90;;;;;;7368766;32;20117;-58
2023/08/02 14:58:42;;;;;;;5.15;1.45;;;23.20;99.90;;;;;;7364947;32;20135;-57
2023/08/02 15:02:44;;;;;;;5.57;1.17;;;23.70;99.90;;;;;;7372969;32;20344;-56
2023/08/02 15:06:46;;;;;;;3.87;1.10;;;23.90;99.90;;;;;;7372699;32;20497;-56
2023/08/02 15:10:48;;;;;;;4.78;1.00;;;24.10;99.90;;;;;;7371052;32;20183;-56
2023/08/02 15:14:49;;;;;;;3.53;0.90;;;24.30;99.90;;;;;;7363323;32;20107;-56
2023/08/02 15:18:53;;;;;;;6.75;1.08;;;24.00;99.90;;;;;;7370643;32;20162;-56
2023/08/02 15:22:55;;;;;;;6.22;1.10;;;23.60;99.90;;;;;;7361078;32;20318;-56
2023/08/02 15:26:58;;;;;;;3.25;1.00;;;23.30;99.90;;;;;;7361333;32;20114;-56
2023/08/02 15:31:00;;;;;;;4.35;1.17;;;23.10;99.90;;;;;;7365005;32;20130;-56
2023/08/02 15:35:02;;;;;;;3.42;1.20;;;22.80;99.90;;;;;;7368531;32;20176;-56
2023/08/02 15:39:03;;;;;;;5.55;1.05;;;22.50;99.90;;;;;;7354833;32;20229;-56
2023/08/02 15:43:05;;;;;;;4.60;1.20;;;22.20;99.90;;;;;;7365041;32;20115;-56
2023/08/02 15:47:07;;;;;;;3.50;1.23;;;21.60;99.90;;;;;;7367892;32;20115;-57
2023/08/02 15:51:09;;;;;;;4.87;1.75;;;21.20;99.90;;;;;;7348325;32;21296;-56
2023/08/02 15:55:11;;;;;;;12.15;2.00;;;20.60;99.90;;;;;;7357031;32;20201;-56
2023/08/02 15:59:13;;;;;;;7.62;1.60;;;19.60;99.90;;;;;;7352076;32;20186;-56
2023/08/02 16:03:15;;;;;;;3.80;1.12;;;18.90;99.90;;;;;;7352354;32;20641;-56
2023/08/02 16:07:18;;;;;;;4.53;1.70;;;18.60;99.90;;;;;;7352269;32;20189;-54
2023/08/02 16:11:20;;;;;;;9.38;2.22;;;18.70;99.90;;;;;;7359690;32;20196;-56
2023/08/02 16:15:22;;;;;;;7.10;1.80;;;18.70;99.90;;;;;;7358144;32;20601;-57
2023/08/02 16:19:23;;;;;;;5.32;1.67;;;18.80;99.90;;;;;;7362829;32;20510;-56
2023/08/02 16:23:25;;;;;;;6.12;1.67;;;18.80;99.90;;;;;;7359956;32;20107;-56
2023/08/02 16:27:27;;;;;;;4.32;1.60;;;18.90;99.90;;;;;;7360716;32;20520;-57
2023/08/02 16:31:29;;;;;;;5.05;1.37;;;19.00;99.90;;;;;;7358953;32;20209;-57
2023/08/02 16:35:31;;;;;;;6.75;1.37;;;19.20;99.90;;;;;;7359057;32;20123;-56
2023/08/02 16:39:33;;;;;;;6.82;1.75;;;19.30;99.90;;;;;;7360110;32;20423;-57
2023/08/02 16:43:35;;;;;;;4.35;1.62;;;19.40;99.90;;;;;;7361111;32;20536;-56
2023/08/02 16:47:37;;;;;;;7.03;1.48;;;19.30;99.90;;;;;;7354961;32;20222;-56
2023/08/02 16:51:38;;;;;;;6.45;1.30;;;19.30;99.90;;;;;;7356777;32;20182;-57
2023/08/02 16:55:40;;;;;;;6.93;1.35;;;19.40;99.90;;;;;;7348830;32;20258;-56
2023/08/02 16:59:42;;;;;;;6.00;1.33;;;19.30;99.90;;;;;;7335191;32;20399;-56
2023/08/02 17:03:44;;;;;;;4.90;1.37;;;19.30;99.90;;;;;;7348292;32;20198;-57
2023/08/02 17:07:46;;;;;;;4.00;1.02;;;19.20;99.90;;;;;;7350748;32;20242;-56
2023/08/02 17:11:48;;;;;;;6.03;1.15;;;19.10;99.90;;;;;;7351210;32;20216;-57
2023/08/02 17:15:50;;;;;;;6.30;1.25;;;19.10;99.90;;;;;;7345052;32;20175;-54
2023/08/02 17:19:52;;;;;;;3.72;1.27;;;19.00;99.90;;;;;;7350768;32;20303;-56
2023/08/02 17:23:53;;;;;;;5.50;1.40;;;18.90;99.90;;;;;;7347907;32;20216;-55
2023/08/02 17:27:55;;;;;;;3.95;1.08;;;18.90;99.90;;;;;;7346578;32;20387;-55
2023/08/02 17:31:57;;;;;;;3.75;0.90;;;18.80;99.90;;;;;;7357305;32;20198;-56
2023/08/02 17:35:59;;;;;;;3.33;0.90;;;18.80;99.90;;;;;;7349906;32;20178;-57
2023/08/02 17:40:01;;;;;;;3.53;1.20;;;18.80;99.90;;;;;;7356315;32;20116;-56
2023/08/02 17:44:03;;;;;;;3.20;0.70;;;18.80;99.90;;;;;;7367197;32;20114;-57
2023/08/02 17:48:11;;;;;;;2.37;0.98;;;18.80;99.90;;;;;;7368076;32;20393;-57
2023/08/02 17:52:14;;;;;;;3.33;0.90;;;18.60;99.90;;;;;;7364955;32;20563;-57
2023/08/02 17:56:15;;;;;;;2.03;0.60;;;18.60;99.90;;;;;;7367348;32;20139;-57
2023/08/02 18:00:21;;;;;;;3.85;0.43;;;18.40;99.90;;;;;;7364330;32;20254;-57
2023/08/02 18:04:23;;;;;;;2.25;0.57;;;17.90;99.90;;;;;;7354579;32;20618;-57
2023/08/02 18:08:25;;;;;;;3.08;0.65;;;17.50;99.90;;;;;;7358423;32;20206;-57
2023/08/02 18:12:27;;;;;;;3.28;0.80;;;17.20;99.90;;;;;;7354450;32;20190;-57
2023/08/02 18:16:29;;;;;;;4.43;0.75;;;17.10;99.90;;;;;;7354763;32;20212;-57
2023/08/02 18:20:30;;;;;;;2.33;0.70;;;17.10;99.90;;;;;;7365993;32;20216;-57
2023/08/02 18:24:32;;;;;;;2.17;0.75;;;17.20;99.90;;;;;;7355358;32;20134;-57
2023/08/02 18:28:40;;;;;;;2.70;0.73;;;17.20;99.90;;;;;;7359724;32;20339;-57
2023/08/02 18:32:42;;;;;;;2.95;0.70;;;17.20;99.90;;;;;;7360018;32;20205;-57
2023/08/02 18:36:44;;;;;;;3.45;0.80;;;17.20;99.90;;;;;;7366625;32;20170;-56
2023/08/02 18:40:45;;;;;;;2.90;0.70;;;17.30;99.90;;;;;;7376708;32;20256;-57
2023/08/02 18:44:48;;;;;;;1.90;0.62;;;17.20;99.90;;;;;;7374172;32;20103;-57
2023/08/02 18:48:52;;;;;;;2.33;0.52;;;17.10;99.90;;;;;;7381759;32;20606;-57
2023/08/02 18:52:53;;;;;;;3.25;0.80;;;17.00;99.90;;;;;;7370356;32;20700;-58
2023/08/02 18:56:55;;;;;;;3.35;0.88;;;17.00;99.90;;;;;;7363775;32;20328;-57
2023/08/02 19:00:57;;;;;;;2.65;0.90;;;16.90;99.90;;;;;;7359523;32;20921;-57
2023/08/02 19:05:00;;;;;;;4.37;0.90;;;16.80;99.90;;;;;;7353840;32;20330;-57
2023/08/02 19:09:02;;;;;;;4.22;0.70;;;16.60;99.90;;;;;;7353435;32;20248;-58
2023/08/02 19:13:13;;;;;;;9.50;1.00;;;16.60;99.90;;;;;;7361123;32;20525;-58
2023/08/02 19:17:16;;;;;;;4.12;0.90;;;16.50;99.90;;;;;;7359369;32;20194;-57
2023/08/02 19:21:18;;;;;;;3.20;0.70;;;16.40;99.90;;;;;;7364974;32;20118;-57
2023/08/02 19:25:22;;;;;;;3.37;0.80;;;16.40;99.90;;;;;;7358202;32;20258;-58
2023/08/02 19:29:23;;;;;;;2.85;1.05;;;16.50;99.90;;;;;;7353004;32;20265;-58
2023/08/02 19:33:27;;;;;;;3.62;0.80;;;16.40;99.90;;;;;;7351886;32;20524;-56
2023/08/02 19:37:29;;;;;;;3.35;0.75;;;16.50;99.90;;;;;;7361980;32;20246;-56
2023/08/02 19:41:31;;;;;;;2.33;0.70;;;16.60;99.90;;;;;;7364425;32;20908;-56
2023/08/02 19:45:33;;;;;;;2.58;0.77;;;16.60;99.90;;;;;;7363007;32;20314;-56
2023/08/02 19:49:35;;;;;;;7.90;0.80;;;16.60;99.90;;;;;;7358743;32;20213;-56
2023/08/02 19:53:37;;;;;;;2.80;0.90;;;16.70;99.90;;;;;;7364253;32;20129;-56
2023/08/02 19:57:43;;;;;;;6.45;1.12;;;16.70;99.90;;;;;;7361824;32;20120;-54
2023/08/02 20:01:51;;;;;;;5.40;1.25;;;16.70;99.90;;;;;;7360957;32;20183;-55
2023/08/02 20:05:57;;;;;;;4.82;1.20;;;16.70;99.90;;;;;;7351072;32;20274;-56
2023/08/02 20:09:59;;;;;;;6.67;1.20;;;16.80;99.90;;;;;;7368218;32;20111;-55
2023/08/02 20:14:00;;;;;;;7.68;1.10;;;16.90;99.90;;;;;;7361901;32;20643;-55
2023/08/02 20:18:05;;;;;;;5.32;1.12;;;16.90;99.90;;;;;;7366394;32;20381;-55
2023/08/02 20:22:14;;;;;;;5.75;1.33;;;16.90;99.90;;;;;;7362847;32;20209;-55
2023/08/02 20:26:18;;;;;;;9.00;1.65;;;17.00;99.90;;;;;;7364762;32;20955;-55
2023/08/02 20:30:20;;;;;;;6.55;1.20;;;17.10;99.90;;;;;;7369266;32;20130;-55
2023/08/02 20:34:22;;;;;;;6.37;1.20;;;17.00;99.90;;;;;;7359215;32;20142;-56
2023/08/02 20:38:24;;;;;;;6.93;1.20;;;17.00;99.90;;;;;;7356927;32;20134;-56
2023/08/02 20:42:25;;;;;;;5.65;1.30;;;16.90;99.90;;;;;;7351017;32;20179;-55
2023/08/02 20:46:29;;;;;;;6.40;1.20;;;16.90;99.90;;;;;;7363739;32;20197;-55
2023/08/02 20:50:32;;;;;;;7.35;1.40;;;16.80;99.90;;;;;;7371661;32;20111;-56
2023/08/02 20:54:34;;;;;;;7.05;1.55;;;16.80;99.90;;;;;;7366581;32;20349;-55
2023/08/02 20:58:37;;;;;;;7.80;1.60;;;16.80;99.90;;;;;;7368357;32;20210;-55
2023/08/02 21:02:41;;;;;;;12.27;1.67;;;16.80;99.90;;;;;;7363880;32;20469;-55